Amana, Iowa
Current Conditions -  °F | °C
As of 2:17 AM on Thursday 27 Nov 2014 (Local Time) from KCID Reporting Station
Overcast Overcast  
Wind Chill: -10°   Ceiling: 1500
Heat Index: -4°   Visibility: 7mi
Dew Point: -6°   Wind: 14mph
Humidity: 85%   Direction: 320°NW
Pressure: 30.33"   Gusts: NA
Location:  41.8°N, 91.87°W
Report Text: KCID 270817Z AUTO 32012KT 7SM OVC015 M04/M06 A3033 RMK AO2 T10391061
Loading
Personal Weather Stations






























Interactive Weather Map New forecast layout! Learn more

10-Day Weather Forecast

Advertisements
Track Severe Weather on mobile